Terminal Aerodrome Forecast
Issued by NWS

Home | Current Version | Previous Version | Graphics & Text | Print | Product List | Glossary Off
Versions: 1 2 3 4 5 6 7 8 9 10 11 12 13 14 15 16 17 18 19 20 21 22 23 24 25 26

000
FTUS43 KDDC 290532
TAFHYS
TAF
KHYS 290532Z 2906/3006 05009KT P6SM OVC060
     FM291000 05012G21KT P6SM TSRA OVC015CB
     FM291200 05013KT 5SM SHRA OVC009
     FM291800 06017KT 3SM -SHRA OVC003
     FM300500 35011KT 3SM -SHRA OVC003=

USA.gov is the U.S. government's official web portal to all federal, state and local government web resources and services.